createdAt,value
2022-08-07T00:02:36.382Z,102582.59
2022-08-07T00:07:27.374Z,102567.59
2022-08-07T00:12:31.701Z,102573.66
2022-08-07T00:17:37.903Z,102565.66
2022-08-07T00:22:43.213Z,102563.72
2022-08-07T00:27:56.521Z,102556.28
2022-08-07T00:33:03.771Z,102557.81
2022-08-07T00:38:07.833Z,102547.00
2022-08-07T00:44:01.780Z,102541.56
2022-08-07T00:48:41.982Z,102544.09
2022-08-07T00:53:55.019Z,102543.66
2022-08-07T00:58:59.748Z,102543.88
2022-08-07T01:04:07.728Z,102535.41
2022-08-07T01:10:05.317Z,102537.03
2022-08-07T01:14:37.164Z,102529.78
2022-08-07T01:19:54.163Z,102521.72
2022-08-07T01:25:05.103Z,102519.66
2022-08-07T01:30:27.779Z,102510.53
2022-08-07T01:35:36.956Z,102517.06
2022-08-07T01:41:00.955Z,102515.19
2022-08-07T01:46:05.274Z,102511.53
2022-08-07T01:52:01.227Z,102509.66
2022-08-07T01:56:49.315Z,102512.00
2022-08-07T02:02:04.285Z,102501.34
2022-08-07T02:07:13.204Z,102499.44
2022-08-07T02:12:29.330Z,102495.69
2022-08-07T02:17:37.279Z,102496.09
2022-08-07T02:22:43.807Z,102493.47
2022-08-07T02:27:51.918Z,102497.66
2022-08-07T02:33:09.101Z,102497.41
2022-08-07T02:38:15.794Z,102493.56
2022-08-07T02:43:22.111Z,102497.69
2022-08-07T02:48:28.092Z,102490.63
2022-08-07T02:53:38.315Z,102488.59
2022-08-07T02:58:47.043Z,102482.94
2022-08-07T03:03:53.513Z,102477.50
2022-08-07T03:09:01.956Z,102482.53
2022-08-07T03:14:08.011Z,102485.88
2022-08-07T03:19:12.663Z,102487.41
2022-08-07T03:24:25.954Z,102480.31
2022-08-07T03:29:37.511Z,102478.53
2022-08-07T03:35:00.853Z,102481.06
2022-08-07T03:40:15.699Z,102475.69
2022-08-07T03:45:30.818Z,102475.59
2022-08-07T03:50:36.857Z,102478.91
2022-08-07T03:55:57.836Z,102486.47
2022-08-07T04:01:13.834Z,102482.97
2022-08-07T04:06:37.026Z,102485.22
2022-08-07T04:12:27.852Z,102491.25
2022-08-07T04:17:19.979Z,102497.34
2022-08-07T04:22:27.477Z,102505.00
2022-08-07T04:27:35.406Z,102502.28
2022-08-07T04:32:44.926Z,102500.41
2022-08-07T04:38:03.711Z,102501.41
2022-08-07T04:43:12.191Z,102501.41
2022-08-07T04:48:29.296Z,102496.12
2022-08-07T04:54:05.474Z,102497.03
2022-08-07T05:00:11.121Z,102513.38
2022-08-07T05:04:50.544Z,102510.81
2022-08-07T05:10:00.755Z,102512.81
2022-08-07T05:15:23.118Z,102509.31
2022-08-07T05:20:37.505Z,102517.19
2022-08-07T05:26:10.751Z,102512.97
2022-08-07T05:31:09.263Z,102515.75
2022-08-07T05:36:22.622Z,102528.09
2022-08-07T05:42:02.710Z,102528.22
2022-08-07T05:46:52.899Z,102529.34
2022-08-07T05:51:59.364Z,102525.81
2022-08-07T05:57:07.223Z,102522.09
2022-08-07T06:02:20.101Z,102520.97
2022-08-07T06:08:14.236Z,102522.53
2022-08-07T06:13:02.222Z,102537.91
2022-08-07T06:18:08.364Z,102537.78
2022-08-07T06:23:46.488Z,102539.06
2022-08-07T06:28:49.431Z,102538.66
2022-08-07T06:33:56.920Z,102538.44
2022-08-07T06:40:17.215Z,102534.59
2022-08-07T06:44:30.989Z,102520.31
2022-08-07T06:49:52.465Z,102519.97
2022-08-07T06:55:32.081Z,102531.78
2022-08-07T07:00:35.640Z,102533.12
2022-08-07T07:06:05.062Z,102518.16
2022-08-07T07:11:13.240Z,102515.16
2022-08-07T07:16:45.373Z,102519.09
2022-08-07T07:22:11.976Z,102513.53
2022-08-07T07:27:24.634Z,102508.91
2022-08-07T07:32:42.684Z,102514.72
2022-08-07T07:38:02.483Z,102501.53
2022-08-07T07:43:18.331Z,102496.72
2022-08-07T07:48:35.985Z,102514.09
2022-08-07T07:53:51.661Z,102505.97
2022-08-07T07:58:59.745Z,102504.81
2022-08-07T08:04:11.228Z,102506.38
2022-08-07T08:09:20.071Z,102509.62
2022-08-07T08:14:28.039Z,102511.37
2022-08-07T08:20:17.494Z,102510.44
2022-08-07T08:25:26.874Z,102514.53
2022-08-07T08:30:51.446Z,102510.06
2022-08-07T08:36:00.623Z,102507.50
2022-08-07T08:41:14.383Z,102498.66
2022-08-07T08:46:29.820Z,102496.94
2022-08-07T08:52:01.010Z,102497.09
2022-08-07T08:57:08.160Z,102491.78
2022-08-07T09:02:35.246Z,102491.03
2022-08-07T09:07:57.497Z,102498.06
2022-08-07T09:13:10.881Z,102483.25
2022-08-07T09:18:34.938Z,102475.28
2022-08-07T09:24:35.108Z,102475.44
2022-08-07T09:30:04.533Z,102469.38
2022-08-07T09:35:00.106Z,102466.00
2022-08-07T09:40:20.225Z,102473.47
2022-08-07T09:47:27.512Z,102469.00
2022-08-07T09:52:10.165Z,102461.59
2022-08-07T09:57:13.683Z,102442.25
2022-08-07T10:02:38.407Z,102451.78
2022-08-07T10:07:58.682Z,102444.16
2022-08-07T10:14:00.810Z,102438.94
2022-08-07T10:19:45.714Z,102433.59
2022-08-07T10:25:12.649Z,102424.56
2022-08-07T10:30:19.027Z,102426.19
2022-08-07T10:35:53.686Z,102421.38
2022-08-07T10:41:07.377Z,102415.91
2022-08-07T10:46:19.397Z,102420.13
2022-08-07T10:51:39.654Z,102405.66
2022-08-07T10:57:11.411Z,102404.56
2022-08-07T11:02:33.645Z,102403.78
2022-08-07T11:08:00.725Z,102409.44
2022-08-07T11:14:44.810Z,102398.81
2022-08-07T11:18:51.088Z,102388.31
2022-08-07T11:24:05.226Z,102385.09
2022-08-07T11:29:40.802Z,102370.06
2022-08-07T11:34:49.871Z,102371.63
2022-08-07T11:40:07.838Z,102356.09
2022-08-07T11:45:35.416Z,102352.72
2022-08-07T11:50:57.617Z,102356.75
2022-08-07T11:56:26.610Z,102344.25
2022-08-07T12:02:00.060Z,102347.66
2022-08-07T12:07:23.577Z,102352.66
2022-08-07T12:12:38.896Z,102336.88
2022-08-07T12:17:59.661Z,102332.50
2022-08-07T12:24:05.148Z,102319.88
2022-08-07T12:29:08.341Z,102322.69
2022-08-07T12:34:14.421Z,102326.16
2022-08-07T12:39:44.121Z,102319.31
2022-08-07T12:44:48.718Z,102313.22
2022-08-07T12:50:04.877Z,102317.59
2022-08-07T12:55:17.527Z,102305.25
2022-08-07T13:00:32.569Z,102313.22
2022-08-07T13:06:03.000Z,102298.13
2022-08-07T13:11:28.504Z,102299.75
2022-08-07T13:16:38.502Z,102298.75
2022-08-07T13:21:57.472Z,102294.13
2022-08-07T13:27:14.293Z,102286.16
2022-08-07T13:32:32.547Z,102292.22
2022-08-07T13:37:58.843Z,102282.56
2022-08-07T13:43:11.922Z,102280.75
2022-08-07T13:48:27.553Z,102272.88
2022-08-07T13:54:00.743Z,102273.63
2022-08-07T13:59:12.339Z,102270.09
2022-08-07T14:04:21.310Z,102270.66
2022-08-07T14:10:12.468Z,102269.03
2022-08-07T14:15:01.571Z,102262.34
2022-08-07T14:20:40.994Z,102254.31
2022-08-07T14:25:39.292Z,102254.22
2022-08-07T14:30:52.294Z,102259.59
2022-08-07T14:35:58.742Z,102255.34
2022-08-07T14:41:14.891Z,102253.50
2022-08-07T14:46:31.262Z,102245.50
2022-08-07T14:52:03.882Z,102242.88
2022-08-07T14:57:19.773Z,102250.72
2022-08-07T15:02:31.669Z,102248.94
2022-08-07T15:07:47.273Z,102237.56
2022-08-07T15:13:00.767Z,102242.94
2022-08-07T15:25:15.911Z,102241.50
2022-08-07T15:30:08.903Z,102231.84
2022-08-07T15:34:37.124Z,102225.88
2022-08-07T15:45:10.649Z,102224.16
2022-08-07T15:55:53.993Z,102226.00
2022-08-07T16:01:20.078Z,102211.00
2022-08-07T16:06:32.233Z,102211.09
2022-08-07T16:12:01.714Z,102207.56
2022-08-07T16:18:02.851Z,102206.78
2022-08-07T16:23:12.045Z,102201.59
2022-08-07T16:30:07.484Z,102212.22
2022-08-07T16:34:03.182Z,102215.00
2022-08-07T16:39:40.669Z,102215.94
2022-08-07T16:46:33.140Z,102208.81
2022-08-07T16:51:21.802Z,102214.09
2022-08-07T16:56:20.733Z,102209.72
2022-08-07T17:01:36.043Z,102210.56
2022-08-07T17:07:02.727Z,102203.47
2022-08-07T17:12:36.624Z,102216.78
2022-08-07T17:17:46.310Z,102215.88
2022-08-07T17:23:02.152Z,102217.66
2022-08-07T17:28:14.159Z,102214.97
2022-08-07T17:34:09.695Z,102215.75
2022-08-07T17:38:58.007Z,102224.47
2022-08-07T17:44:14.704Z,102224.34
2022-08-07T17:49:24.402Z,102231.28
2022-08-07T17:54:53.608Z,102232.03
2022-08-07T18:00:05.614Z,102224.88
2022-08-07T18:05:21.232Z,102226.47
2022-08-07T18:12:06.698Z,102230.69
2022-08-07T18:16:05.748Z,102231.34
2022-08-07T18:21:37.277Z,102233.59
2022-08-07T18:27:17.304Z,102238.75
2022-08-07T18:32:51.852Z,102235.09
2022-08-07T18:38:58.894Z,102237.47
2022-08-07T18:43:57.888Z,102245.12
2022-08-07T18:50:31.269Z,102248.34
2022-08-07T18:54:49.677Z,102253.59
2022-08-07T19:00:32.036Z,102258.38
2022-08-07T19:06:03.844Z,102260.00
2022-08-07T19:11:36.533Z,102272.94
2022-08-07T19:17:06.742Z,102275.44
2022-08-07T19:22:15.484Z,102273.38
2022-08-07T19:28:58.312Z,102274.81
2022-08-07T19:32:53.647Z,102284.94
2022-08-07T19:38:16.139Z,102283.78
2022-08-07T19:43:48.698Z,102287.94
2022-08-07T19:48:57.100Z,102303.28
2022-08-07T19:54:30.945Z,102304.81
2022-08-07T19:59:40.981Z,102307.28
2022-08-07T20:04:49.415Z,102307.78
2022-08-07T20:10:35.306Z,102310.00
2022-08-07T20:15:23.284Z,102310.12
2022-08-07T20:20:34.515Z,102307.13
2022-08-07T20:25:50.990Z,102308.66
2022-08-07T20:30:58.176Z,102310.12
2022-08-07T20:36:07.451Z,102310.59
2022-08-07T20:41:13.624Z,102327.88
2022-08-07T20:46:25.636Z,102328.53
2022-08-07T20:51:40.601Z,102329.03
2022-08-07T20:56:56.590Z,102329.56
2022-08-07T21:02:05.195Z,102323.12
2022-08-07T21:07:31.789Z,102327.34
2022-08-07T21:12:37.304Z,102323.56
2022-08-07T21:18:06.203Z,102327.56
2022-08-07T21:23:19.543Z,102330.97
2022-08-07T21:28:50.004Z,102326.31
2022-08-07T21:34:08.756Z,102332.13
2022-08-07T21:39:47.613Z,102340.59
2022-08-07T21:44:50.990Z,102324.63
2022-08-07T21:50:03.569Z,102325.31
2022-08-07T21:55:29.817Z,102323.25
2022-08-07T22:00:34.268Z,102332.69
2022-08-07T22:05:48.467Z,102327.16
2022-08-07T22:10:59.509Z,102323.28
2022-08-07T22:16:42.301Z,102329.06
2022-08-07T22:22:02.836Z,102338.50
2022-08-07T22:27:13.549Z,102337.44
2022-08-07T22:32:25.259Z,102339.97
2022-08-07T22:38:03.176Z,102352.72
2022-08-07T22:43:10.806Z,102360.22
2022-08-07T22:48:54.747Z,102361.78
2022-08-07T22:54:07.947Z,102368.59
2022-08-07T22:59:50.171Z,102370.97
2022-08-07T23:06:14.841Z,102366.31
2022-08-07T23:10:42.278Z,102369.37
2022-08-07T23:16:06.386Z,102367.38
2022-08-07T23:21:29.932Z,102360.12
2022-08-07T23:26:57.875Z,102361.47
2022-08-07T23:34:19.413Z,102360.28
2022-08-07T23:38:01.839Z,102360.09
2022-08-07T23:43:35.326Z,102359.91
2022-08-07T23:49:07.031Z,102361.28
2022-08-07T23:54:35.879Z,102362.72
